Denver, CO

4:38 PM MDT on June 28, 2017 (GMT -0600)
Denver International | | Change Station

Elev 5430 ft 39.86 °N, 104.67 °W | Updated 45 minutes ago

Partly Cloudy
Partly Cloudy
86 °F
Feels Like 86 °F
N
20
Wind Variable Wind from ESE
Gusts 24 mph

Today
High -- | Low -- °F
--% Chance of Precip.
Yesterday
High -- | Low -- °F
Precip. -- in
Pressure 29.60 in
Visibility 10.0 miles
Clouds Few 10000 ft
Mostly Cloudy 14000 ft
Mostly Cloudy 22000 ft
Dew Point 38 °F
Humidity 18%
Rainfall 0.00 in
Snow Depth Not available.
5:32 AM 8:31 PM
Waxing Crescent, 29% visible
METAR KDEN 282153Z 11017G21KT 10SM FEW100 BKN140 BKN220 30/03 A2985 RMK AO2 PK WND 11028/2126 SLP022 VIRGA S-W T03000033
Pressure 29.60 in
Visibility 10.0 miles
Clouds Few 10000 ft
Mostly Cloudy 14000 ft
Mostly Cloudy 22000 ft
Dew Point 38 °F
Humidity 18%
Rainfall 0.00 in
Snow Depth Not available.
5:32 AM 8:31 PM
Waxing Crescent, 29% visible
METAR KDEN 282153Z 11017G21KT 10SM FEW100 BKN140 BKN220 30/03 A2985 RMK AO2 PK WND 11028/2126 SLP022 VIRGA S-W T03000033

Get Severe Weather Alerts

Thanks for signing up!

Be on the lookout for a verification email in your inbox.

You'll start receiving the daily forecast at 6 AM.

×

10-Day Weather Forecast

Almanac

Astronomy

Jun. 28, 2017 Rise Set
Actual Time
Civil Twilight
Nautical Twilight
Astronomical Twilight
Moon
Length of Visible Light
Length of Day
Tomorrow will be .
, % of the Moon is Illuminated

Today's Extremes

State Highs State Lows

Community

WunderPhotos

Category 6

Welcome to Category 6. This is the collective home for Weather Underground's featured writeups by Dr. Jeff Masters (right), Bob Henson (left), Chris Burt, and other regular contributors.

Nearby

Air Quality

  Air Quality AQ Index Pollutant
Not available.

Snow Depth

Station Depth Elevation

Earthquake Activity

City Distance Mag. Time & Date
Minimum magnitude displayed is 2.5.

Coastal Water Temperatures

Place Temperature

Stations

Nearby Weather Stations

Station Location Temp. Windchill Dew Point Humidity Wind Precip. Elev Updated Type
                   

Watches & Warnings

There are currently no watches in effect.